createdAt,value
2022-11-24T00:00:13.731Z,3.53
2022-11-24T00:03:00.506Z,10.63
2022-11-24T00:05:47.116Z,8.23
2022-11-24T00:08:33.973Z,8.55
2022-11-24T00:11:23.641Z,4.07
2022-11-24T00:14:10.283Z,6.57
2022-11-24T00:16:56.984Z,4.60
2022-11-24T00:19:43.202Z,6.70
2022-11-24T00:22:29.255Z,8.50
2022-11-24T00:25:16.047Z,10.48
2022-11-24T00:28:02.106Z,8.93
2022-11-24T00:30:48.923Z,9.60
2022-11-24T00:33:38.542Z,11.98
2022-11-24T00:36:28.733Z,7.43
2022-11-24T00:39:15.742Z,12.27
2022-11-24T00:42:03.943Z,10.90
2022-11-24T00:44:49.854Z,10.07
2022-11-24T00:47:35.843Z,10.55
2022-11-24T00:50:21.742Z,11.10
2022-11-24T00:53:07.676Z,9.05
2022-11-24T00:55:55.074Z,12.30
2022-11-24T00:58:41.145Z,10.50
2022-11-24T01:01:29.279Z,15.40
2022-11-24T01:04:15.361Z,9.32
2022-11-24T01:07:01.312Z,10.32
2022-11-24T01:09:47.233Z,7.15
2022-11-24T01:12:34.476Z,14.85
2022-11-24T01:15:20.884Z,7.30
2022-11-24T01:18:07.316Z,18.40
2022-11-24T01:20:56.646Z,9.43
2022-11-24T01:23:43.410Z,12.13
2022-11-24T01:26:29.667Z,8.82
2022-11-24T01:29:16.840Z,9.10
2022-11-24T01:32:03.075Z,7.63
2022-11-24T01:34:49.995Z,11.57
2022-11-24T01:37:36.222Z,6.88
2022-11-24T01:40:22.173Z,11.30
2022-11-24T01:43:21.610Z,13.40
2022-11-24T01:46:13.570Z,8.90
2022-11-24T01:49:10.270Z,10.95
2022-11-24T01:52:18.721Z,8.48
2022-11-24T01:55:17.521Z,7.43
2022-11-24T01:58:19.129Z,10.65
2022-11-24T02:01:05.867Z,7.53
2022-11-24T02:03:52.686Z,7.95
2022-11-24T02:06:41.744Z,7.85
2022-11-24T02:09:36.370Z,8.50
2022-11-24T02:12:27.134Z,6.85
2022-11-24T02:15:18.049Z,4.45
2022-11-24T02:18:04.380Z,6.72
2022-11-24T02:20:50.194Z,11.18
2022-11-24T02:23:50.985Z,8.40
2022-11-24T02:26:48.229Z,10.02
2022-11-24T02:29:34.410Z,13.88
2022-11-24T02:32:21.541Z,8.10
2022-11-24T02:35:08.796Z,11.20
2022-11-24T02:37:55.046Z,3.95
2022-11-24T02:40:46.323Z,6.78
2022-11-24T02:43:41.740Z,9.52
2022-11-24T02:46:28.211Z,12.25
2022-11-24T02:49:14.336Z,10.80
2022-11-24T02:52:00.263Z,11.60
2022-11-24T02:54:46.306Z,9.75
2022-11-24T02:57:32.322Z,6.10
2022-11-24T03:00:19.270Z,8.10
2022-11-24T03:03:05.976Z,18.42
2022-11-24T03:05:52.227Z,14.00
2022-11-24T03:08:38.255Z,7.78
2022-11-24T03:11:24.283Z,18.55
2022-11-24T03:14:10.927Z,9.63
2022-11-24T03:16:57.213Z,10.27
2022-11-24T03:19:45.614Z,14.35
2022-11-24T03:22:31.492Z,11.15
2022-11-24T03:25:18.244Z,9.45
2022-11-24T03:28:04.739Z,11.57
2022-11-24T03:30:50.840Z,10.00
2022-11-24T03:33:37.400Z,20.90
2022-11-24T03:36:23.430Z,12.30
2022-11-24T03:39:09.604Z,14.55
2022-11-24T03:41:57.661Z,10.35
2022-11-24T03:44:44.338Z,14.25
2022-11-24T03:47:30.224Z,13.10
2022-11-24T03:50:16.251Z,10.43
2022-11-24T03:53:02.186Z,11.45
2022-11-24T03:55:48.296Z,12.15
2022-11-24T03:58:37.087Z,12.48
2022-11-24T04:01:23.432Z,13.15
2022-11-24T04:04:12.007Z,10.75
2022-11-24T04:06:58.706Z,18.60
2022-11-24T04:09:45.471Z,14.73
2022-11-24T04:12:46.752Z,12.98
2022-11-24T04:15:32.819Z,11.45
2022-11-24T04:18:19.680Z,10.63
2022-11-24T04:21:05.875Z,11.35
2022-11-24T04:23:51.903Z,14.65
2022-11-24T04:26:38.263Z,9.82
2022-11-24T04:29:24.666Z,19.05
2022-11-24T04:32:10.863Z,19.48
2022-11-24T04:34:56.813Z,16.70
2022-11-24T04:37:42.768Z,20.70
2022-11-24T04:40:28.783Z,10.60
2022-11-24T04:43:16.175Z,13.73
2022-11-24T04:46:02.137Z,15.38
2022-11-24T04:48:48.296Z,19.90
2022-11-24T04:51:34.216Z,13.40
2022-11-24T04:54:24.076Z,14.50
2022-11-24T04:57:20.249Z,17.30
2022-11-24T05:00:06.902Z,17.35
2022-11-24T05:02:53.178Z,14.18
2022-11-24T05:05:39.084Z,11.43
2022-11-24T05:08:25.147Z,16.13
2022-11-24T05:11:11.571Z,14.50
2022-11-24T05:13:57.845Z,18.73
2022-11-24T05:16:43.983Z,19.98
2022-11-24T05:19:32.529Z,9.05
2022-11-24T05:22:18.773Z,14.45
2022-11-24T05:25:06.133Z,12.35
2022-11-24T05:27:55.876Z,20.40
2022-11-24T05:30:42.009Z,18.88
2022-11-24T05:33:29.968Z,17.42
2022-11-24T05:36:34.288Z,21.10
2022-11-24T05:39:21.814Z,23.63
2022-11-24T05:42:27.472Z,14.85
2022-11-24T05:45:16.407Z,12.05
2022-11-24T05:48:12.195Z,11.50
2022-11-24T05:50:58.719Z,17.65
2022-11-24T05:53:44.862Z,25.42
2022-11-24T05:56:30.805Z,15.63
2022-11-24T05:59:17.945Z,20.27
2022-11-24T06:02:07.789Z,23.08
2022-11-24T06:04:53.850Z,23.98
2022-11-24T06:07:39.924Z,12.57
2022-11-24T06:10:26.576Z,22.33
2022-11-24T06:13:12.497Z,27.13
2022-11-24T06:15:59.600Z,21.73
2022-11-24T06:18:46.002Z,16.52
2022-11-24T06:21:32.206Z,18.42
2022-11-24T06:24:18.400Z,15.50
2022-11-24T06:27:04.490Z,20.90
2022-11-24T06:29:50.501Z,18.45
2022-11-24T06:32:38.515Z,14.10
2022-11-24T06:35:24.448Z,15.43
2022-11-24T06:38:10.907Z,19.65
2022-11-24T06:41:06.310Z,19.50
2022-11-24T06:43:52.983Z,18.27
2022-11-24T06:46:39.233Z,24.23
2022-11-24T06:49:25.288Z,22.75
2022-11-24T06:52:11.125Z,17.98
2022-11-24T06:54:57.240Z,15.15
2022-11-24T06:57:46.311Z,17.85
2022-11-24T07:00:32.570Z,18.73
2022-11-24T07:03:19.600Z,29.08
2022-11-24T07:06:06.515Z,20.48
2022-11-24T07:08:53.119Z,26.50
2022-11-24T07:11:40.476Z,19.45
2022-11-24T07:14:26.579Z,17.13
2022-11-24T07:17:12.591Z,16.65
2022-11-24T07:19:58.732Z,21.55
2022-11-24T07:22:44.863Z,17.88
2022-11-24T07:25:31.323Z,21.65
2022-11-24T07:28:17.960Z,20.63
2022-11-24T07:31:08.594Z,20.10
2022-11-24T07:33:55.471Z,17.73
2022-11-24T07:36:42.110Z,16.95
2022-11-24T07:39:27.969Z,23.45
2022-11-24T07:42:13.954Z,20.50
2022-11-24T07:44:59.803Z,15.35
2022-11-24T07:47:45.885Z,16.38
2022-11-24T07:50:31.858Z,20.30
2022-11-24T07:53:18.348Z,17.67
2022-11-24T07:56:06.216Z,16.55
2022-11-24T07:58:53.151Z,27.65
2022-11-24T08:01:39.318Z,21.17
2022-11-24T08:04:25.257Z,18.75
2022-11-24T08:07:11.250Z,23.27
2022-11-24T08:09:57.101Z,21.70
2022-11-24T08:12:43.945Z,43.65
2022-11-24T08:15:29.911Z,16.77
2022-11-24T08:18:15.935Z,19.20
2022-11-24T08:21:02.360Z,19.95
2022-11-24T08:23:48.269Z,36.10
2022-11-24T08:26:34.390Z,28.58
2022-11-24T08:29:20.778Z,25.63
2022-11-24T08:32:17.402Z,26.65
2022-11-24T08:35:13.865Z,21.13
2022-11-24T08:38:04.813Z,19.58
2022-11-24T08:40:54.512Z,21.25
2022-11-24T08:43:41.478Z,21.95
2022-11-24T08:46:27.736Z,16.52
2022-11-24T08:49:15.050Z,23.58
2022-11-24T08:52:01.095Z,22.50
2022-11-24T08:54:47.607Z,21.70
2022-11-24T08:57:33.736Z,18.67
2022-11-24T09:00:22.877Z,23.63
2022-11-24T09:03:11.824Z,15.35
2022-11-24T09:05:58.119Z,18.85
2022-11-24T09:08:44.031Z,27.23
2022-11-24T09:11:30.716Z,21.63
2022-11-24T09:14:16.579Z,22.88
2022-11-24T09:17:02.590Z,32.13
2022-11-24T09:19:48.393Z,32.15
2022-11-24T09:22:34.274Z,25.40
2022-11-24T09:25:20.251Z,26.50
2022-11-24T09:28:06.107Z,26.88
2022-11-24T09:30:52.112Z,22.98
2022-11-24T09:33:39.811Z,23.50
2022-11-24T09:36:25.746Z,22.83
2022-11-24T09:39:12.459Z,23.80
2022-11-24T09:42:01.627Z,21.80
2022-11-24T09:45:05.002Z,30.73
2022-11-24T09:48:12.331Z,26.60
2022-11-24T09:51:04.301Z,24.50
2022-11-24T09:53:59.049Z,20.40
2022-11-24T09:56:46.866Z,29.70
2022-11-24T09:59:33.678Z,25.58
2022-11-24T10:02:19.854Z,25.90
2022-11-24T10:05:06.854Z,23.95
2022-11-24T10:08:11.355Z,29.30
2022-11-24T10:11:03.143Z,19.88
2022-11-24T10:14:21.720Z,27.15
2022-11-24T10:17:39.532Z,25.90
2022-11-24T10:20:37.966Z,26.55
2022-11-24T10:23:52.083Z,31.70
2022-11-24T10:26:40.614Z,29.08
2022-11-24T10:29:34.635Z,27.02
2022-11-24T10:32:29.536Z,27.60
2022-11-24T10:35:20.063Z,26.70
2022-11-24T10:38:21.701Z,20.58
2022-11-24T10:41:14.425Z,27.63
2022-11-24T10:44:00.695Z,26.83
2022-11-24T10:46:46.663Z,25.35
2022-11-24T10:49:33.799Z,25.63
2022-11-24T10:52:23.620Z,33.22
2022-11-24T10:55:10.170Z,28.55
2022-11-24T10:58:14.408Z,34.28
2022-11-24T11:01:25.229Z,25.30
2022-11-24T11:04:22.352Z,25.85
2022-11-24T11:07:20.746Z,26.00
2022-11-24T11:10:22.000Z,33.30
2022-11-24T11:13:27.499Z,25.20
2022-11-24T11:16:24.289Z,37.40
2022-11-24T11:19:48.419Z,30.10
2022-11-24T11:22:37.800Z,19.85
2022-11-24T11:25:33.374Z,33.90
2022-11-24T11:28:30.472Z,37.55
2022-11-24T11:31:22.120Z,32.50
2022-11-24T11:34:23.482Z,26.10
2022-11-24T11:37:14.787Z,26.55
2022-11-24T11:40:01.475Z,21.17
2022-11-24T11:43:24.706Z,21.77
2022-11-24T11:46:13.783Z,27.67
2022-11-24T11:49:00.461Z,27.48
2022-11-24T11:51:59.236Z,26.08
2022-11-24T11:55:18.474Z,26.20
2022-11-24T11:58:35.610Z,34.95
2022-11-24T12:01:46.174Z,18.63
2022-11-24T12:04:35.744Z,29.80
2022-11-24T12:07:33.939Z,17.88
2022-11-24T12:10:28.714Z,27.73
2022-11-24T12:13:36.531Z,18.25
2022-11-24T12:16:39.698Z,31.50
2022-11-24T12:19:51.467Z,27.23
2022-11-24T12:23:00.028Z,21.05
2022-11-24T12:25:53.407Z,26.83
2022-11-24T12:29:06.654Z,24.50
2022-11-24T12:32:21.923Z,17.10
2022-11-24T12:35:29.439Z,18.48
2022-11-24T12:38:22.280Z,24.13
2022-11-24T12:41:43.024Z,29.90
2022-11-24T12:44:44.317Z,24.58
2022-11-24T12:47:50.582Z,19.92
2022-11-24T12:50:39.118Z,16.48
2022-11-24T12:53:33.933Z,24.13
2022-11-24T12:56:35.555Z,25.50
2022-11-24T13:00:00.527Z,21.73
2022-11-24T13:03:14.445Z,22.45
2022-11-24T13:06:25.478Z,20.83
2022-11-24T13:09:13.143Z,19.65
2022-11-24T13:12:12.251Z,21.08
2022-11-24T13:14:58.395Z,20.83
2022-11-24T13:18:05.109Z,17.52
2022-11-24T13:20:53.739Z,19.25
2022-11-24T13:23:39.748Z,15.55
2022-11-24T13:26:48.251Z,21.58
2022-11-24T13:29:36.873Z,26.98
2022-11-24T13:32:22.831Z,21.60
2022-11-24T13:35:15.018Z,22.38
2022-11-24T13:38:00.959Z,22.10
2022-11-24T13:41:06.377Z,39.60
2022-11-24T13:44:14.844Z,23.40
2022-11-24T13:47:07.755Z,18.63
2022-11-24T13:49:54.166Z,24.35
2022-11-24T13:52:40.351Z,28.27
2022-11-24T13:55:33.606Z,17.33
2022-11-24T13:58:30.585Z,16.40
2022-11-24T14:01:26.290Z,21.35
2022-11-24T14:04:32.819Z,20.35
2022-11-24T14:07:19.723Z,22.90
2022-11-24T14:10:13.676Z,16.75
2022-11-24T14:13:25.065Z,15.68
2022-11-24T14:16:17.005Z,24.88
2022-11-24T14:19:10.071Z,21.08
2022-11-24T14:21:56.011Z,20.50
2022-11-24T14:24:47.064Z,21.75
2022-11-24T14:27:36.699Z,24.70
2022-11-24T14:30:26.975Z,16.58
2022-11-24T14:33:13.391Z,17.70
2022-11-24T14:35:59.786Z,27.98
2022-11-24T14:38:45.794Z,23.13
2022-11-24T14:41:33.447Z,18.42
2022-11-24T14:44:24.375Z,17.70
2022-11-24T14:47:20.324Z,22.15
2022-11-24T14:50:15.155Z,22.02
2022-11-24T14:53:02.142Z,17.63
2022-11-24T14:56:07.930Z,18.38
2022-11-24T14:58:55.542Z,24.63
2022-11-24T15:01:41.581Z,24.73
2022-11-24T15:05:01.523Z,21.75
2022-11-24T15:07:41.035Z,15.27
2022-11-24T15:10:35.259Z,26.70
2022-11-24T15:13:25.222Z,19.42
2022-11-24T15:16:23.089Z,22.02
2022-11-24T15:19:16.147Z,21.02
2022-11-24T15:22:35.462Z,24.30
2022-11-24T15:25:41.630Z,18.92
2022-11-24T15:28:28.476Z,24.38
2022-11-24T15:31:15.061Z,22.80
2022-11-24T15:34:00.927Z,16.00
2022-11-24T15:36:46.760Z,23.33
2022-11-24T15:39:32.772Z,15.15
2022-11-24T15:42:18.563Z,16.38
2022-11-24T15:45:05.573Z,16.45
2022-11-24T15:47:51.865Z,22.90
2022-11-24T15:50:40.897Z,23.48
2022-11-24T15:53:37.609Z,20.77
2022-11-24T15:56:33.963Z,19.73
2022-11-24T15:59:21.333Z,15.55
2022-11-24T16:02:09.114Z,17.88
2022-11-24T16:04:54.994Z,18.55
2022-11-24T16:07:41.299Z,20.25
2022-11-24T16:10:33.708Z,18.52
2022-11-24T16:13:22.245Z,19.48
2022-11-24T16:16:09.507Z,14.63
2022-11-24T16:18:58.706Z,7.82
2022-11-24T16:21:47.828Z,8.10
2022-11-24T16:24:34.479Z,13.18
2022-11-24T16:27:20.751Z,6.63
2022-11-24T16:30:08.587Z,5.88
2022-11-24T16:32:54.525Z,5.90
2022-11-24T16:35:40.375Z,7.43
2022-11-24T16:38:26.539Z,6.80
2022-11-24T16:41:12.406Z,7.20
2022-11-24T16:43:58.583Z,17.20
2022-11-24T16:46:44.770Z,19.90
2022-11-24T16:49:31.586Z,4.38
2022-11-24T16:52:17.955Z,9.40
2022-11-24T16:55:06.300Z,7.82
2022-11-24T16:57:52.559Z,11.15
2022-11-24T17:00:38.642Z,5.63
2022-11-24T17:03:24.953Z,7.60
2022-11-24T17:06:12.821Z,4.35
2022-11-24T17:08:59.506Z,3.15
2022-11-24T17:11:46.192Z,3.15
2022-11-24T17:14:32.738Z,3.42
2022-11-24T17:17:19.550Z,5.95
2022-11-24T17:20:06.431Z,10.15
2022-11-24T17:22:54.031Z,13.65
2022-11-24T17:25:40.231Z,9.73
2022-11-24T17:28:26.523Z,10.93
2022-11-24T17:31:17.644Z,16.33
2022-11-24T17:34:05.543Z,15.57
2022-11-24T17:36:51.553Z,13.63
2022-11-24T17:39:37.552Z,13.45
2022-11-24T17:42:23.390Z,23.17
2022-11-24T17:45:10.136Z,16.08
2022-11-24T17:47:58.815Z,16.27
2022-11-24T17:50:45.034Z,15.27
2022-11-24T17:53:31.434Z,15.38
2022-11-24T17:56:23.550Z,25.63
2022-11-24T17:59:09.719Z,18.80
2022-11-24T18:01:55.499Z,18.15
2022-11-24T18:04:41.406Z,12.63
2022-11-24T18:07:27.572Z,27.15
2022-11-24T18:10:13.422Z,25.27
2022-11-24T18:12:59.333Z,15.35
2022-11-24T18:15:45.288Z,27.67
2022-11-24T18:18:31.366Z,19.40
2022-11-24T18:21:18.916Z,21.25
2022-11-24T18:24:05.436Z,27.40
2022-11-24T18:26:51.654Z,18.15
2022-11-24T18:29:37.641Z,24.85
2022-11-24T18:32:23.554Z,26.40
2022-11-24T18:35:10.348Z,24.60
2022-11-24T18:37:56.435Z,25.23
2022-11-24T18:40:42.300Z,20.40
2022-11-24T18:43:29.424Z,21.92
2022-11-24T18:46:17.109Z,25.80
2022-11-24T18:49:03.604Z,24.20
2022-11-24T18:51:50.109Z,20.85
2022-11-24T18:54:36.817Z,23.58
2022-11-24T18:57:23.257Z,19.17
2022-11-24T19:00:10.849Z,17.98
2022-11-24T19:02:57.195Z,20.25
2022-11-24T19:05:43.199Z,24.50
2022-11-24T19:08:29.224Z,19.35
2022-11-24T19:11:28.215Z,26.65
2022-11-24T19:14:17.614Z,28.15
2022-11-24T19:17:04.736Z,26.35
2022-11-24T19:19:51.587Z,31.23
2022-11-24T19:22:37.714Z,23.30
2022-11-24T19:25:23.467Z,26.10
2022-11-24T19:28:12.515Z,33.85
2022-11-24T19:31:09.227Z,24.67
2022-11-24T19:33:57.917Z,25.95
2022-11-24T19:36:46.759Z,30.75
2022-11-24T19:39:32.996Z,20.00
2022-11-24T19:42:19.027Z,27.63
2022-11-24T19:45:05.689Z,30.35
2022-11-24T19:47:51.764Z,36.92
2022-11-24T19:50:37.681Z,39.63
2022-11-24T19:53:23.539Z,25.20
2022-11-24T19:56:15.318Z,31.63
2022-11-24T19:59:02.823Z,26.17
2022-11-24T20:01:49.967Z,29.27
2022-11-24T20:04:39.617Z,39.38
2022-11-24T20:07:25.881Z,28.20
2022-11-24T20:10:11.754Z,27.85
2022-11-24T20:12:59.698Z,31.55
2022-11-24T20:15:45.795Z,26.73
2022-11-24T20:18:37.558Z,28.02
2022-11-24T20:21:31.081Z,32.42
2022-11-24T20:24:19.794Z,27.30
2022-11-24T20:27:07.700Z,29.13
2022-11-24T20:29:54.603Z,40.80
2022-11-24T20:32:40.427Z,36.42
2022-11-24T20:35:26.371Z,28.33
2022-11-24T20:38:12.302Z,30.70
2022-11-24T20:41:09.245Z,25.83
2022-11-24T20:43:59.514Z,25.10
2022-11-24T20:46:46.551Z,24.75
2022-11-24T20:49:32.565Z,36.35
2022-11-24T20:52:18.558Z,24.10
2022-11-24T20:55:05.438Z,28.23
2022-11-24T20:57:53.419Z,22.70
2022-11-24T21:00:39.469Z,28.98
2022-11-24T21:03:25.725Z,35.75
2022-11-24T21:06:13.179Z,20.38
2022-11-24T21:09:03.675Z,24.95
2022-11-24T21:11:54.802Z,28.45
2022-11-24T21:14:41.620Z,23.80
2022-11-24T21:17:27.795Z,29.30
2022-11-24T21:20:13.758Z,35.20
2022-11-24T21:22:59.835Z,29.38
2022-11-24T21:25:45.890Z,22.52
2022-11-24T21:28:33.052Z,19.90
2022-11-24T21:31:21.363Z,27.83
2022-11-24T21:34:08.302Z,21.50
2022-11-24T21:36:54.385Z,19.73
2022-11-24T21:39:44.631Z,24.90
2022-11-24T21:42:31.598Z,27.17
2022-11-24T21:45:17.570Z,24.83
2022-11-24T21:48:03.628Z,18.23
2022-11-24T21:50:49.562Z,17.63
2022-11-24T21:53:37.012Z,23.83
2022-11-24T21:56:24.190Z,20.92
2022-11-24T21:59:10.452Z,21.77
2022-11-24T22:01:57.409Z,20.45
2022-11-24T22:04:43.182Z,18.33
2022-11-24T22:07:32.815Z,18.80
2022-11-24T22:10:19.095Z,24.40
2022-11-24T22:13:05.550Z,25.33
2022-11-24T22:16:07.040Z,29.45
2022-11-24T22:18:53.223Z,15.40
2022-11-24T22:21:40.026Z,18.25
2022-11-24T22:24:35.939Z,23.38
2022-11-24T22:27:22.338Z,26.08
2022-11-24T22:30:10.436Z,14.90
2022-11-24T22:32:59.197Z,19.45
2022-11-24T22:35:54.937Z,28.48
2022-11-24T22:38:41.850Z,22.77
2022-11-24T22:41:28.251Z,23.67
2022-11-24T22:44:14.697Z,25.90
2022-11-24T22:47:00.592Z,29.95
2022-11-24T22:49:46.580Z,32.88
2022-11-24T22:52:33.759Z,20.83
2022-11-24T22:55:19.950Z,24.65
2022-11-24T22:58:05.865Z,23.27
2022-11-24T23:00:52.327Z,29.58
2022-11-24T23:03:39.511Z,24.73
2022-11-24T23:06:28.072Z,21.83
2022-11-24T23:09:14.276Z,23.88
2022-11-24T23:12:00.306Z,30.08
2022-11-24T23:14:46.199Z,20.58
2022-11-24T23:17:32.587Z,23.75
2022-11-24T23:20:18.844Z,25.75
2022-11-24T23:23:04.954Z,21.42
2022-11-24T23:25:50.769Z,26.40
2022-11-24T23:28:37.906Z,11.35
2022-11-24T23:31:29.278Z,20.30
2022-11-24T23:34:15.276Z,29.83
2022-11-24T23:37:01.111Z,23.35
2022-11-24T23:39:46.916Z,21.98
2022-11-24T23:42:32.891Z,19.67
2022-11-24T23:45:18.779Z,21.67
2022-11-24T23:48:05.284Z,25.35
2022-11-24T23:50:51.393Z,23.98
2022-11-24T23:53:37.319Z,24.45
2022-11-24T23:56:34.025Z,18.63
2022-11-24T23:59:20.348Z,32.60
